Time;durP1;ratioP1;P1;durP2;ratioP2;P2;SDS_P1;SDS_P2;PMS_P1;PMS_P2;Temp;Humidity;BMP_temperature;BMP_pressure;BME280_temperature;BME280_humidity;BME280_pressure;Samples;Min_cycle;Max_cycle;Signal;HPM_P1;HPM_P2
2021/07/17 00:01:00;;;;;;;37.37;16.67;;;;;;;;;;5050144;28;20281;-67
2021/07/17 00:03:25;;;;;;;38.97;15.93;;;;;;;;;;5050298;28;20299;-67
2021/07/17 00:05:50;;;;;;;42.78;18.13;;;;;;;;;;5050159;28;20032;-66
2021/07/17 00:08:15;;;;;;;35.92;16.77;;;;;;;;;;5050230;28;20099;-66
2021/07/17 00:10:47;;;;;;;42.13;16.30;;;;;;;;;;5049973;28;20025;-67
2021/07/17 00:13:13;;;;;;;40.58;17.77;;;;;;;;;;5050140;28;20267;-67
2021/07/17 00:15:38;;;;;;;37.22;16.90;;;;;;;;;;5049878;28;20024;-67
2021/07/17 00:18:04;;;;;;;39.83;16.77;;;;;;;;;;5032345;28;20028;-67
2021/07/17 00:20:29;;;;;;;37.63;14.90;;;;;;;;;;5050129;28;20020;-67
2021/07/17 00:22:54;;;;;;;37.63;16.00;;;;;;;;;;5050856;28;20096;-67
2021/07/17 00:25:20;;;;;;;36.47;15.10;;;;;;;;;;5073564;22;20256;-84
2021/07/17 00:27:46;;;;;;;39.15;16.42;;;;;;;;;;5046155;28;20736;-84
2021/07/17 00:30:12;;;;;;;35.10;15.57;;;;;;;;;;5067874;28;20051;-84
2021/07/17 00:32:37;;;;;;;38.17;17.20;;;;;;;;;;5068497;28;20024;-84
2021/07/17 00:35:06;;;;;;;34.47;13.75;;;;;;;;;;5066699;28;20040;-84
2021/07/17 00:37:32;;;;;;;33.00;16.65;;;;;;;;;;5067504;28;20041;-84
2021/07/17 00:39:57;;;;;;;40.67;14.88;;;;;;;;;;5050786;28;20029;-84
2021/07/17 00:42:22;;;;;;;40.70;15.80;;;;;;;;;;5067057;28;20014;-84
2021/07/17 00:44:47;;;;;;;37.33;13.87;;;;;;;;;;5069257;28;20564;-84
2021/07/17 00:47:16;;;;;;;40.00;15.57;;;;;;;;;;5045332;28;20275;-84
2021/07/17 00:49:42;;;;;;;34.35;13.40;;;;;;;;;;5066463;28;20403;-84
2021/07/17 00:52:07;;;;;;;37.55;14.02;;;;;;;;;;5050112;28;20108;-84
2021/07/17 00:54:32;;;;;;;49.65;15.10;;;;;;;;;;5046823;28;20021;-84
2021/07/17 00:57:00;;;;;;;41.58;15.88;;;;;;;;;;5068886;28;20056;-84
2021/07/17 00:59:28;;;;;;;41.67;14.93;;;;;;;;;;5064795;28;20066;-84
2021/07/17 01:01:53;;;;;;;44.10;14.48;;;;;;;;;;5067254;28;20111;-84
2021/07/17 01:04:19;;;;;;;33.75;14.20;;;;;;;;;;5059121;28;20104;-83
2021/07/17 01:06:44;;;;;;;43.90;12.90;;;;;;;;;;5065340;28;20020;-84
2021/07/17 01:09:09;;;;;;;34.00;14.13;;;;;;;;;;5049487;28;20036;-83
2021/07/17 01:11:35;;;;;;;32.67;12.98;;;;;;;;;;5065812;28;20269;-83
2021/07/17 01:14:00;;;;;;;32.72;13.23;;;;;;;;;;5066673;28;20021;-84
2021/07/17 01:16:26;;;;;;;42.05;13.52;;;;;;;;;;5068516;28;20476;-84
2021/07/17 01:18:51;;;;;;;37.72;13.38;;;;;;;;;;5066625;28;20029;-83
2021/07/17 01:21:17;;;;;;;39.50;12.83;;;;;;;;;;5068168;28;20124;-84
2021/07/17 01:23:43;;;;;;;42.15;14.15;;;;;;;;;;5049852;28;20266;-83
2021/07/17 01:26:09;;;;;;;39.88;13.10;;;;;;;;;;5065878;28;20024;-84
2021/07/17 01:28:34;;;;;;;37.38;13.48;;;;;;;;;;5048163;28;20724;-84
2021/07/17 01:30:59;;;;;;;45.85;13.52;;;;;;;;;;5067863;28;20407;-83
2021/07/17 01:33:24;;;;;;;38.92;13.55;;;;;;;;;;5067821;28;20068;-84
2021/07/17 01:35:52;;;;;;;36.90;13.38;;;;;;;;;;5048764;28;20052;-84
2021/07/17 01:38:17;;;;;;;44.10;12.90;;;;;;;;;;5048624;28;20028;-84
2021/07/17 01:40:45;;;;;;;35.97;12.63;;;;;;;;;;5047610;28;20612;-83
2021/07/17 01:43:11;;;;;;;36.08;12.98;;;;;;;;;;5047200;28;20490;-83
2021/07/17 01:45:38;;;;;;;42.35;12.23;;;;;;;;;;5049249;28;20016;-85
2021/07/17 01:48:04;;;;;;;44.67;14.25;;;;;;;;;;5065902;28;20020;-84
2021/07/17 01:50:29;;;;;;;41.08;13.82;;;;;;;;;;5067110;28;20029;-84
2021/07/17 01:52:55;;;;;;;37.92;13.10;;;;;;;;;;5049561;28;20056;-84
2021/07/17 01:55:20;;;;;;;34.40;13.82;;;;;;;;;;5049379;28;20111;-84
2021/07/17 01:57:48;;;;;;;43.50;13.75;;;;;;;;;;5047888;28;20099;-84
2021/07/17 02:00:14;;;;;;;38.58;13.77;;;;;;;;;;5066848;28;20027;-84
2021/07/17 02:02:39;;;;;;;44.00;14.50;;;;;;;;;;5065534;28;20020;-84
2021/07/17 02:05:05;;;;;;;42.50;13.05;;;;;;;;;;5069636;28;20031;-84
2021/07/17 02:07:30;;;;;;;44.35;13.73;;;;;;;;;;5071211;28;20091;-84
2021/07/17 02:09:56;;;;;;;35.35;14.68;;;;;;;;;;5071698;28;20031;-84
2021/07/17 02:12:21;;;;;;;47.28;13.68;;;;;;;;;;5075239;28;20084;-83
2021/07/17 02:14:49;;;;;;;37.33;13.87;;;;;;;;;;5075854;28;20012;-84
2021/07/17 02:17:14;;;;;;;38.00;13.90;;;;;;;;;;5076365;28;20251;-83
2021/07/17 02:19:39;;;;;;;52.58;13.70;;;;;;;;;;5082397;28;20099;-83
2021/07/17 02:22:05;;;;;;;50.23;13.70;;;;;;;;;;5071420;28;20024;-83
2021/07/17 02:24:30;;;;;;;54.65;16.10;;;;;;;;;;5052127;28;20262;-84
2021/07/17 02:26:55;;;;;;;38.63;14.10;;;;;;;;;;5069320;28;20028;-84
2021/07/17 02:29:20;;;;;;;43.40;14.27;;;;;;;;;;5069179;28;20259;-83
2021/07/17 02:31:46;;;;;;;39.08;13.52;;;;;;;;;;5052897;28;20267;-84
2021/07/17 02:34:14;;;;;;;41.53;15.95;;;;;;;;;;5069391;28;20024;-84
2021/07/17 02:36:39;;;;;;;44.95;14.05;;;;;;;;;;5069511;28;20559;-84
2021/07/17 02:39:05;;;;;;;40.15;15.38;;;;;;;;;;5069130;28;20107;-84
2021/07/17 02:41:31;;;;;;;44.03;13.95;;;;;;;;;;5050339;28;20159;-84
2021/07/17 02:43:56;;;;;;;46.58;15.82;;;;;;;;;;5065774;28;20044;-84
2021/07/17 02:46:21;;;;;;;48.25;15.43;;;;;;;;;;5069361;28;20017;-84
2021/07/17 02:48:46;;;;;;;39.30;15.90;;;;;;;;;;5068821;28;20096;-84
2021/07/17 02:51:12;;;;;;;41.53;16.23;;;;;;;;;;5068806;28;20052;-84
2021/07/17 02:53:37;;;;;;;54.60;17.63;;;;;;;;;;5051091;28;20681;-83
2021/07/17 02:56:02;;;;;;;46.03;15.48;;;;;;;;;;5068743;28;20029;-83
2021/07/17 02:58:27;;;;;;;43.65;15.52;;;;;;;;;;5046936;28;20028;-83
2021/07/17 03:00:56;;;;;;;39.23;14.43;;;;;;;;;;5047801;28;20658;-84
2021/07/17 03:03:21;;;;;;;52.33;14.55;;;;;;;;;;5067050;28;20657;-83
2021/07/17 03:05:47;;;;;;;44.97;14.20;;;;;;;;;;5068280;28;20027;-83
2021/07/17 03:08:24;;;;;;;45.05;14.98;;;;;;;;;;5066792;28;20020;-83
2021/07/17 03:10:50;;;;;;;48.72;14.50;;;;;;;;;;5049618;28;20031;-83
2021/07/17 03:13:15;;;;;;;38.72;15.60;;;;;;;;;;5067451;28;20021;-84
2021/07/17 03:15:41;;;;;;;41.20;15.05;;;;;;;;;;5066165;28;20500;-84
2021/07/17 03:18:06;;;;;;;41.00;15.68;;;;;;;;;;5067815;28;20043;-83
2021/07/17 03:20:32;;;;;;;44.67;15.65;;;;;;;;;;5060408;28;20024;-84
2021/07/17 03:22:57;;;;;;;48.70;15.30;;;;;;;;;;5068985;28;20126;-84
2021/07/17 03:25:22;;;;;;;49.17;15.80;;;;;;;;;;5045006;28;20031;-83
2021/07/17 03:27:47;;;;;;;52.75;14.80;;;;;;;;;;5055451;28;20273;-84
2021/07/17 03:30:13;;;;;;;40.80;13.97;;;;;;;;;;5065534;28;20020;-84
2021/07/17 03:32:38;;;;;;;57.70;14.25;;;;;;;;;;5066713;28;20271;-83
2021/07/17 03:35:04;;;;;;;45.47;15.50;;;;;;;;;;5054340;28;20025;-83
2021/07/17 03:37:29;;;;;;;40.92;15.70;;;;;;;;;;5072112;28;20081;-83
2021/07/17 03:39:55;;;;;;;41.53;14.98;;;;;;;;;;5069291;28;20024;-83
2021/07/17 03:42:20;;;;;;;42.33;14.68;;;;;;;;;;5052341;28;20016;-83
2021/07/17 03:44:45;;;;;;;41.20;14.18;;;;;;;;;;5050142;28;20070;-84
2021/07/17 03:47:10;;;;;;;40.93;13.60;;;;;;;;;;5044920;28;20055;-83
2021/07/17 03:49:36;;;;;;;39.07;13.67;;;;;;;;;;5053280;28;20263;-83
2021/07/17 03:52:01;;;;;;;47.53;14.25;;;;;;;;;;5040191;28;20284;-83
2021/07/17 03:54:27;;;;;;;54.22;15.88;;;;;;;;;;5054885;28;20511;-84
2021/07/17 03:56:52;;;;;;;41.47;14.37;;;;;;;;;;5054666;28;20033;-83
2021/07/17 03:59:17;;;;;;;39.58;14.70;;;;;;;;;;5044764;28;20290;-84
2021/07/17 04:01:42;;;;;;;39.85;14.80;;;;;;;;;;5057171;28;20032;-83
2021/07/17 04:04:11;;;;;;;52.50;15.47;;;;;;;;;;5064730;28;20027;-84
2021/07/17 04:06:36;;;;;;;56.25;14.85;;;;;;;;;;5050707;28;20774;-83
2021/07/17 04:09:02;;;;;;;50.17;15.73;;;;;;;;;;5053172;28;20081;-83
2021/07/17 04:11:27;;;;;;;45.90;14.25;;;;;;;;;;5052934;28;20271;-83
2021/07/17 04:13:52;;;;;;;48.85;14.68;;;;;;;;;;5067751;28;20033;-83
2021/07/17 04:16:18;;;;;;;43.70;14.20;;;;;;;;;;5050956;28;20034;-83
2021/07/17 04:18:43;;;;;;;43.03;13.90;;;;;;;;;;5070029;28;20154;-83
2021/07/17 04:21:08;;;;;;;48.30;14.97;;;;;;;;;;5050186;28;20024;-83
2021/07/17 04:23:34;;;;;;;49.30;15.13;;;;;;;;;;5072838;28;20268;-83
2021/07/17 04:25:59;;;;;;;56.07;15.77;;;;;;;;;;5075843;28;20535;-84
2021/07/17 04:28:24;;;;;;;49.80;13.80;;;;;;;;;;5066819;28;20274;-83
2021/07/17 04:30:49;;;;;;;58.78;15.00;;;;;;;;;;5049185;28;20274;-83
2021/07/17 04:33:15;;;;;;;38.85;13.43;;;;;;;;;;5067912;28;20067;-84
2021/07/17 04:35:41;;;;;;;41.53;13.35;;;;;;;;;;5065764;28;20017;-84
2021/07/17 04:38:06;;;;;;;53.45;13.63;;;;;;;;;;5064955;28;20166;-83
2021/07/17 04:40:31;;;;;;;39.90;14.13;;;;;;;;;;5066039;28;20114;-83
2021/07/17 04:42:57;;;;;;;45.40;15.10;;;;;;;;;;5067980;28;20182;-83
2021/07/17 04:45:22;;;;;;;47.37;13.67;;;;;;;;;;5049005;28;20283;-83
2021/07/17 04:47:47;;;;;;;40.80;13.45;;;;;;;;;;5065419;28;20794;-83
2021/07/17 04:50:12;;;;;;;38.73;14.03;;;;;;;;;;5067062;28;20037;-84
2021/07/17 04:52:37;;;;;;;42.33;12.63;;;;;;;;;;5068963;28;20334;-84
2021/07/17 04:55:03;;;;;;;44.40;14.43;;;;;;;;;;5067412;28;20024;-84
2021/07/17 04:57:28;;;;;;;41.50;14.27;;;;;;;;;;5066679;28;20075;-83
2021/07/17 04:59:53;;;;;;;43.67;13.60;;;;;;;;;;5065359;28;20021;-83
2021/07/17 05:02:18;;;;;;;36.90;13.50;;;;;;;;;;5049709;28;20016;-83
2021/07/17 05:04:44;;;;;;;45.90;13.65;;;;;;;;;;5048330;28;20270;-83
2021/07/17 05:07:09;;;;;;;35.92;12.75;;;;;;;;;;5066535;28;20029;-84
2021/07/17 05:09:34;;;;;;;34.70;12.50;;;;;;;;;;5062061;28;20017;-83
2021/07/17 05:11:59;;;;;;;44.60;13.73;;;;;;;;;;5036662;28;21054;-84
2021/07/17 05:14:24;;;;;;;44.58;13.35;;;;;;;;;;5066585;28;20269;-83
2021/07/17 05:16:50;;;;;;;47.60;15.30;;;;;;;;;;5047199;28;20036;-84
2021/07/17 05:19:17;;;;;;;37.75;14.05;;;;;;;;;;5066256;28;20302;-83
2021/07/17 05:21:42;;;;;;;49.95;17.65;;;;;;;;;;5066584;28;20061;-83
2021/07/17 05:24:07;;;;;;;48.13;17.10;;;;;;;;;;5065644;28;20029;-83
2021/07/17 05:26:33;;;;;;;41.13;16.75;;;;;;;;;;5066963;28;20388;-83
2021/07/17 05:28:58;;;;;;;57.58;19.70;;;;;;;;;;5066890;28;20024;-83
2021/07/17 05:31:23;;;;;;;53.42;18.48;;;;;;;;;;5049896;28;20016;-83
2021/07/17 05:33:48;;;;;;;42.70;17.23;;;;;;;;;;5068337;28;20508;-84
2021/07/17 05:36:13;;;;;;;43.93;18.90;;;;;;;;;;5049022;28;20290;-83
2021/07/17 05:38:39;;;;;;;45.20;18.33;;;;;;;;;;5047621;28;20362;-84
2021/07/17 05:41:04;;;;;;;44.60;18.35;;;;;;;;;;5070003;28;20283;-83
2021/07/17 05:43:29;;;;;;;51.42;16.80;;;;;;;;;;5052111;28;20070;-84
2021/07/17 05:45:55;;;;;;;45.88;19.95;;;;;;;;;;5086709;22;20012;-65
2021/07/17 05:48:20;;;;;;;46.05;18.77;;;;;;;;;;5082606;28;20035;-64
2021/07/17 05:50:45;;;;;;;58.88;21.23;;;;;;;;;;5093331;28;20049;-65
2021/07/17 05:53:10;;;;;;;52.90;19.08;;;;;;;;;;5081024;28;20024;-65
2021/07/17 05:55:36;;;;;;;46.07;19.90;;;;;;;;;;5071911;28;20016;-64
2021/07/17 05:58:01;;;;;;;51.20;20.88;;;;;;;;;;5071029;28;20358;-64
2021/07/17 06:00:27;;;;;;;48.30;21.20;;;;;;;;;;5072218;28;20028;-64
2021/07/17 06:02:52;;;;;;;51.20;20.83;;;;;;;;;;5071104;28;20021;-65
2021/07/17 06:05:17;;;;;;;44.90;20.17;;;;;;;;;;5071482;28;20021;-65
2021/07/17 06:07:42;;;;;;;49.83;24.60;;;;;;;;;;5072212;28;20623;-64
2021/07/17 06:10:08;;;;;;;44.85;22.85;;;;;;;;;;5071227;28;20032;-65
2021/07/17 06:12:33;;;;;;;52.38;22.70;;;;;;;;;;5065184;28;20070;-65
2021/07/17 06:14:58;;;;;;;52.03;21.50;;;;;;;;;;5071113;28;20079;-64
2021/07/17 06:17:24;;;;;;;55.25;21.10;;;;;;;;;;5072009;28;20810;-65
2021/07/17 06:19:49;;;;;;;52.70;21.80;;;;;;;;;;5063936;28;20048;-65
2021/07/17 06:22:14;;;;;;;49.57;21.27;;;;;;;;;;5070335;28;20028;-65
2021/07/17 06:24:40;;;;;;;50.30;21.15;;;;;;;;;;5071447;28;20735;-64
2021/07/17 06:27:06;;;;;;;46.38;20.75;;;;;;;;;;5070389;28;20020;-64
2021/07/17 06:29:31;;;;;;;42.70;18.55;;;;;;;;;;5071811;28;20025;-64
2021/07/17 06:31:57;;;;;;;43.25;18.95;;;;;;;;;;5070774;28;20024;-65
2021/07/17 06:34:22;;;;;;;48.72;18.17;;;;;;;;;;5072596;28;20013;-64
2021/07/17 06:36:47;;;;;;;44.00;19.20;;;;;;;;;;5071610;28;20081;-64
2021/07/17 06:39:12;;;;;;;50.47;19.25;;;;;;;;;;5070287;28;20271;-65
2021/07/17 06:41:38;;;;;;;47.63;18.50;;;;;;;;;;5069543;28;20020;-64
2021/07/17 06:44:03;;;;;;;41.63;19.40;;;;;;;;;;5083710;22;20457;-67
2021/07/17 06:46:28;;;;;;;45.00;18.85;;;;;;;;;;5071117;28;20259;-67
2021/07/17 06:48:53;;;;;;;49.10;17.55;;;;;;;;;;5073155;28;20013;-67
2021/07/17 06:51:18;;;;;;;46.58;19.92;;;;;;;;;;5077300;28;20042;-67
2021/07/17 06:53:44;;;;;;;55.50;23.30;;;;;;;;;;5066225;28;20029;-67
2021/07/17 06:56:09;;;;;;;51.92;21.70;;;;;;;;;;5062531;28;20456;-67
2021/07/17 06:58:34;;;;;;;44.90;20.70;;;;;;;;;;5064862;28;20020;-66
2021/07/17 07:01:00;;;;;;;46.10;21.60;;;;;;;;;;5063531;28;20390;-67
2021/07/17 07:03:25;;;;;;;52.08;22.10;;;;;;;;;;5063120;28;20103;-67
2021/07/17 07:05:50;;;;;;;44.70;20.33;;;;;;;;;;5052197;28;20024;-66
2021/07/17 07:08:15;;;;;;;45.83;21.23;;;;;;;;;;5060040;28;20264;-67
2021/07/17 07:10:41;;;;;;;51.53;22.73;;;;;;;;;;5057830;28;20279;-67
2021/07/17 07:13:14;;;;;;;66.10;21.33;;;;;;;;;;5052748;28;20306;-67
2021/07/17 07:15:40;;;;;;;43.00;21.23;;;;;;;;;;5059180;28;20267;-66
2021/07/17 07:18:05;;;;;;;56.80;21.40;;;;;;;;;;5060001;28;20343;-66
2021/07/17 07:20:31;;;;;;;47.00;20.40;;;;;;;;;;5067105;28;20445;-67
2021/07/17 07:22:56;;;;;;;45.65;22.42;;;;;;;;;;5060164;28;20028;-67
2021/07/17 07:25:21;;;;;;;54.33;23.98;;;;;;;;;;5061301;28;20016;-67
2021/07/17 07:27:47;;;;;;;59.83;23.25;;;;;;;;;;5052730;28;20155;-66
2021/07/17 07:30:13;;;;;;;52.85;24.08;;;;;;;;;;5060725;28;20021;-66
2021/07/17 07:32:38;;;;;;;50.63;25.10;;;;;;;;;;5054204;28;20027;-67
2021/07/17 07:35:03;;;;;;;52.37;22.97;;;;;;;;;;5052681;28;20396;-67
2021/07/17 07:37:29;;;;;;;51.03;24.65;;;;;;;;;;5055144;28;20280;-67
2021/07/17 07:39:54;;;;;;;58.95;25.75;;;;;;;;;;5053844;28;20450;-67
2021/07/17 07:42:20;;;;;;;60.00;26.85;;;;;;;;;;5059960;28;20385;-66
2021/07/17 07:44:45;;;;;;;59.90;26.90;;;;;;;;;;5053216;28;20036;-67
2021/07/17 07:47:10;;;;;;;63.87;28.23;;;;;;;;;;5048910;28;20017;-67
2021/07/17 07:49:35;;;;;;;52.80;28.40;;;;;;;;;;5059691;28;20279;-67
2021/07/17 07:52:00;;;;;;;69.22;28.13;;;;;;;;;;5053901;28;20029;-67
2021/07/17 07:54:26;;;;;;;69.75;29.65;;;;;;;;;;5053926;28;20112;-68
2021/07/17 07:56:51;;;;;;;69.15;28.05;;;;;;;;;;5051316;28;20167;-68
2021/07/17 07:59:16;;;;;;;62.47;29.03;;;;;;;;;;5054341;28;20533;-67
2021/07/17 08:01:41;;;;;;;56.85;27.70;;;;;;;;;;5050693;28;20285;-67
2021/07/17 08:04:06;;;;;;;74.37;30.50;;;;;;;;;;5058922;28;20056;-66
2021/07/17 08:06:31;;;;;;;50.47;26.83;;;;;;;;;;5054665;28;20278;-67
2021/07/17 08:08:57;;;;;;;61.70;27.67;;;;;;;;;;5065818;28;20373;-67
2021/07/17 08:11:22;;;;;;;63.83;28.58;;;;;;;;;;5055283;28;20401;-67
2021/07/17 08:13:47;;;;;;;57.70;28.83;;;;;;;;;;5052411;28;20385;-67
2021/07/17 08:16:12;;;;;;;50.67;26.13;;;;;;;;;;5058318;28;20331;-67
2021/07/17 08:18:37;;;;;;;55.23;28.13;;;;;;;;;;5048648;28;20079;-67
2021/07/17 08:21:03;;;;;;;56.20;27.03;;;;;;;;;;5064392;28;20296;-67
2021/07/17 08:23:28;;;;;;;58.42;26.75;;;;;;;;;;5055633;28;21062;-66
2021/07/17 08:25:53;;;;;;;48.95;26.48;;;;;;;;;;5058058;28;20094;-67
2021/07/17 08:28:19;;;;;;;56.58;25.10;;;;;;;;;;5062218;28;20028;-67
2021/07/17 08:30:44;;;;;;;48.90;23.67;;;;;;;;;;5060949;28;20033;-67
2021/07/17 08:33:10;;;;;;;55.38;22.65;;;;;;;;;;5057526;28;20021;-67
2021/07/17 08:35:35;;;;;;;50.35;22.00;;;;;;;;;;5050549;28;20033;-66
2021/07/17 08:38:00;;;;;;;57.85;26.05;;;;;;;;;;5063679;28;20519;-66
2021/07/17 08:40:26;;;;;;;62.20;25.95;;;;;;;;;;5061956;28;20362;-67
2021/07/17 08:42:51;;;;;;;60.70;27.70;;;;;;;;;;5049788;28;20427;-67
2021/07/17 08:45:17;;;;;;;55.97;27.60;;;;;;;;;;5053010;28;20056;-67
2021/07/17 08:47:43;;;;;;;57.70;27.30;;;;;;;;;;5054254;28;20045;-67
2021/07/17 08:50:10;;;;;;;61.70;28.67;;;;;;;;;;5059054;28;20104;-67
2021/07/17 08:52:36;;;;;;;60.78;28.55;;;;;;;;;;5050213;28;20048;-67
2021/07/17 08:55:04;;;;;;;61.42;26.92;;;;;;;;;;5061267;28;20178;-67
2021/07/17 08:57:32;;;;;;;53.03;26.98;;;;;;;;;;5061969;28;20017;-66
2021/07/17 08:59:58;;;;;;;57.88;27.10;;;;;;;;;;5059871;28;20444;-66
2021/07/17 09:02:23;;;;;;;51.67;27.77;;;;;;;;;;5051550;28;20035;-66
2021/07/17 09:04:48;;;;;;;49.13;26.77;;;;;;;;;;5051256;28;20025;-66
2021/07/17 09:07:14;;;;;;;57.10;29.30;;;;;;;;;;5063631;28;20089;-67
2021/07/17 09:09:40;;;;;;;63.25;28.17;;;;;;;;;;5069108;28;20052;-66
2021/07/17 09:12:26;;;;;;;63.70;30.05;;;;;;;;;;5065502;28;20060;-67
2021/07/17 09:14:52;;;;;;;55.80;28.48;;;;;;;;;;5073131;28;20098;-67
2021/07/17 09:17:24;;;;;;;58.42;29.00;;;;;;;;;;5064032;28;20024;-67
2021/07/17 09:19:54;;;;;;;64.22;28.67;;;;;;;;;;5062957;28;20329;-67
2021/07/17 09:22:40;;;;;;;57.03;29.15;;;;;;;;;;5053852;28;20017;-67
2021/07/17 09:25:12;;;;;;;52.47;28.30;;;;;;;;;;5054012;28;20028;-65
2021/07/17 09:27:37;;;;;;;56.90;28.40;;;;;;;;;;5055701;28;20024;-65
2021/07/17 09:30:03;;;;;;;50.65;25.95;;;;;;;;;;5054204;28;20025;-65
2021/07/17 09:32:29;;;;;;;63.30;29.40;;;;;;;;;;5071265;28;20055;-65
2021/07/17 09:34:54;;;;;;;58.58;28.55;;;;;;;;;;5069892;28;20040;-65
2021/07/17 09:37:22;;;;;;;58.20;26.00;;;;;;;;;;5055059;28;20013;-66
2021/07/17 09:39:49;;;;;;;54.53;28.20;;;;;;;;;;5063382;28;20283;-64
2021/07/17 09:42:15;;;;;;;56.00;28.60;;;;;;;;;;5057073;28;20032;-65
2021/07/17 09:44:42;;;;;;;56.00;27.63;;;;;;;;;;5054602;28;20094;-65
2021/07/17 09:47:17;;;;;;;53.55;27.17;;;;;;;;;;5063415;28;20051;-65
2021/07/17 09:49:42;;;;;;;47.47;25.60;;;;;;;;;;5062473;28;20012;-65
2021/07/17 09:52:08;;;;;;;52.80;24.85;;;;;;;;;;5061388;28;20039;-65
2021/07/17 09:54:34;;;;;;;47.03;24.15;;;;;;;;;;5056236;28;20017;-66
2021/07/17 09:57:00;;;;;;;48.38;24.70;;;;;;;;;;5059785;28;20087;-65
2021/07/17 09:59:25;;;;;;;46.65;23.50;;;;;;;;;;5070489;28;20039;-64
2021/07/17 10:01:50;;;;;;;51.08;23.63;;;;;;;;;;5073049;28;20024;-65
2021/07/17 10:04:15;;;;;;;47.27;23.67;;;;;;;;;;5053973;28;20035;-66
2021/07/17 10:06:42;;;;;;;53.17;23.17;;;;;;;;;;5053111;28;20363;-65
2021/07/17 10:09:22;;;;;;;46.42;23.65;;;;;;;;;;5067135;28;20016;-65
2021/07/17 10:11:51;;;;;;;42.50;20.45;;;;;;;;;;5061310;28;20028;-66
2021/07/17 10:14:21;;;;;;;50.47;21.13;;;;;;;;;;5053122;28;20609;-65
2021/07/17 10:16:50;;;;;;;36.42;17.80;;;;;;;;;;5053228;28;20033;-66
2021/07/17 10:19:18;;;;;;;42.90;17.33;;;;;;;;;;5035525;28;20369;-65
2021/07/17 10:21:44;;;;;;;34.55;16.13;;;;;;;;;;5052779;28;20538;-65
2021/07/17 10:24:10;;;;;;;40.45;16.40;;;;;;;;;;5053638;28;20111;-64
2021/07/17 10:26:36;;;;;;;32.38;14.65;;;;;;;;;;5062318;28;20025;-65
2021/07/17 10:29:05;;;;;;;37.47;15.63;;;;;;;;;;5070019;28;20378;-66
2021/07/17 10:31:31;;;;;;;36.92;15.43;;;;;;;;;;5072843;28;20025;-65
2021/07/17 10:33:56;;;;;;;37.03;15.32;;;;;;;;;;5072396;28;20043;-66
2021/07/17 10:36:23;;;;;;;29.80;14.77;;;;;;;;;;5053393;28;20021;-66
2021/07/17 10:38:50;;;;;;;29.75;13.73;;;;;;;;;;5051992;28;20263;-66
2021/07/17 10:41:16;;;;;;;30.88;13.02;;;;;;;;;;5052485;28;20028;-65
2021/07/17 10:43:48;;;;;;;36.53;12.32;;;;;;;;;;5052364;28;20219;-66
2021/07/17 10:46:30;;;;;;;28.02;13.13;;;;;;;;;;5052722;28;20020;-65
2021/07/17 10:48:56;;;;;;;30.05;10.63;;;;;;;;;;5062353;28;20021;-66
2021/07/17 10:51:27;;;;;;;32.33;12.10;;;;;;;;;;5056996;28;20029;-66
2021/07/17 10:53:54;;;;;;;27.13;10.57;;;;;;;;;;5052260;28;20017;-66
2021/07/17 10:56:25;;;;;;;26.42;11.25;;;;;;;;;;5052351;28;20067;-66
2021/07/17 10:58:50;;;;;;;33.97;14.82;;;;;;;;;;5051768;28;20028;-66
2021/07/17 11:01:15;;;;;;;34.33;13.93;;;;;;;;;;5052618;28;20366;-66
2021/07/17 11:03:40;;;;;;;24.88;11.93;;;;;;;;;;5052414;28;20251;-66
2021/07/17 11:06:22;;;;;;;26.53;11.97;;;;;;;;;;5053243;28;20457;-66
2021/07/17 11:08:47;;;;;;;26.27;11.40;;;;;;;;;;5051919;28;20255;-65
2021/07/17 11:11:27;;;;;;;32.57;10.63;;;;;;;;;;5052162;28;20531;-66
2021/07/17 11:13:56;;;;;;;21.45;9.32;;;;;;;;;;5053336;28;20273;-66
2021/07/17 11:16:40;;;;;;;26.52;10.30;;;;;;;;;;5052066;28;20025;-66
2021/07/17 11:19:31;;;;;;;24.58;10.05;;;;;;;;;;5061232;28;20020;-66
2021/07/17 11:22:11;;;;;;;21.15;8.95;;;;;;;;;;5046541;28;20033;-66
2021/07/17 11:24:36;;;;;;;20.58;7.80;;;;;;;;;;5058018;28;20016;-67
2021/07/17 11:27:08;;;;;;;19.13;8.23;;;;;;;;;;5071726;28;20108;-66
2021/07/17 11:29:40;;;;;;;26.77;9.10;;;;;;;;;;5071353;28;20012;-67
2021/07/17 11:32:06;;;;;;;24.27;8.70;;;;;;;;;;5071008;28;20020;-67
2021/07/17 11:34:32;;;;;;;21.63;9.43;;;;;;;;;;5066434;28;20462;-66
2021/07/17 11:36:58;;;;;;;32.42;9.43;;;;;;;;;;5051609;28;20035;-67
2021/07/17 11:39:25;;;;;;;17.60;8.77;;;;;;;;;;5054539;28;20481;-66
2021/07/17 11:41:50;;;;;;;18.15;9.18;;;;;;;;;;5061051;28;20036;-66
2021/07/17 11:44:16;;;;;;;24.77;8.90;;;;;;;;;;5071141;28;20043;-66
2021/07/17 11:47:00;;;;;;;24.33;9.23;;;;;;;;;;5067590;28;20095;-66
2021/07/17 11:49:26;;;;;;;16.13;7.70;;;;;;;;;;5058549;28;20021;-66
2021/07/17 11:51:53;;;;;;;27.27;8.80;;;;;;;;;;5071318;28;20097;-66
2021/07/17 11:54:28;;;;;;;19.77;8.63;;;;;;;;;;5070210;28;20433;-66
2021/07/17 11:57:05;;;;;;;24.17;9.00;;;;;;;;;;5071168;28;20021;-66
2021/07/17 11:59:31;;;;;;;17.77;7.97;;;;;;;;;;5052158;28;20435;-66
2021/07/17 12:02:08;;;;;;;16.40;7.68;;;;;;;;;;5062152;28;20025;-66
2021/07/17 12:04:34;;;;;;;22.15;8.25;;;;;;;;;;5051270;28;20090;-66
2021/07/17 12:07:00;;;;;;;20.65;7.65;;;;;;;;;;5051184;28;20082;-66
2021/07/17 12:09:35;;;;;;;19.42;7.22;;;;;;;;;;5052350;28;20029;-66
2021/07/17 12:12:14;;;;;;;15.95;6.90;;;;;;;;;;5062867;28;20029;-66
2021/07/17 12:14:39;;;;;;;23.15;6.82;;;;;;;;;;5050894;28;20024;-67
2021/07/17 12:17:04;;;;;;;12.77;5.27;;;;;;;;;;5050775;28;20508;-67
2021/07/17 12:19:29;;;;;;;17.42;5.97;;;;;;;;;;5050627;28;20267;-66
2021/07/17 12:21:57;;;;;;;17.60;6.37;;;;;;;;;;5050902;28;20065;-66
2021/07/17 12:24:23;;;;;;;14.43;5.50;;;;;;;;;;5058808;28;20059;-67
2021/07/17 12:26:48;;;;;;;14.93;5.43;;;;;;;;;;5053889;28;20048;-66
2021/07/17 12:29:13;;;;;;;22.50;5.57;;;;;;;;;;5050553;28;20091;-67
2021/07/17 12:31:38;;;;;;;14.37;5.07;;;;;;;;;;5051012;28;20017;-67
2021/07/17 12:34:08;;;;;;;15.87;5.87;;;;;;;;;;5050537;28;20267;-66
2021/07/17 12:36:34;;;;;;;;;;;;;;;;;;5062484;28;20271;-67
2021/07/17 12:39:00;;;;;;;15.73;4.55;;;;;;;;;;5070228;28;19911;-67
2021/07/17 12:41:26;;;;;;;15.32;4.20;;;;;;;;;;5068607;28;20036;-66
2021/07/17 12:44:05;;;;;;;10.38;3.80;;;;;;;;;;5079676;22;20044;-82
2021/07/17 12:46:31;;;;;;;13.02;4.82;;;;;;;;;;5068805;28;20009;-81
2021/07/17 12:48:59;;;;;;;9.05;3.88;;;;;;;;;;5075686;28;20048;-81
2021/07/17 12:51:24;;;;;;;9.38;4.50;;;;;;;;;;5071952;28;20029;-80
2021/07/17 12:53:50;;;;;;;10.73;4.05;;;;;;;;;;5050708;28;20047;-80
2021/07/17 12:56:27;;;;;;;11.93;5.15;;;;;;;;;;5049937;28;20025;-80
2021/07/17 12:58:52;;;;;;;11.65;3.85;;;;;;;;;;5067867;28;20174;-80
2021/07/17 13:01:17;;;;;;;15.43;3.65;;;;;;;;;;5068341;28;20129;-81
2021/07/17 13:03:43;;;;;;;17.02;4.78;;;;;;;;;;5068726;28;20460;-81
2021/07/17 13:06:11;;;;;;;13.27;4.38;;;;;;;;;;5068611;28;20021;-81
2021/07/17 13:08:36;;;;;;;12.18;3.67;;;;;;;;;;5068081;28;20105;-82
2021/07/17 13:11:01;;;;;;;11.67;3.53;;;;;;;;;;5068767;28;20052;-81
2021/07/17 13:13:29;;;;;;;15.20;4.85;;;;;;;;;;5066053;28;20017;-80
2021/07/17 13:15:55;;;;;;;15.90;4.95;;;;;;;;;;5067777;28;20047;-81
2021/07/17 13:18:22;;;;;;;8.80;3.45;;;;;;;;;;5066166;28;20438;-80
2021/07/17 13:21:07;;;;;;;12.38;4.18;;;;;;;;;;5050247;28;20111;-81
2021/07/17 13:23:49;;;;;;;15.10;3.83;;;;;;;;;;5051682;28;20047;-80
2021/07/17 13:26:18;;;;;;;14.30;4.55;;;;;;;;;;5051730;28;20100;-82
2021/07/17 13:28:43;;;;;;;10.90;2.97;;;;;;;;;;5069210;28;20021;-81
2021/07/17 13:31:15;;;;;;;12.97;4.33;;;;;;;;;;5067284;28;20099;-81
2021/07/17 13:33:40;;;;;;;10.55;3.58;;;;;;;;;;5048459;28;20017;-82
2021/07/17 13:36:06;;;;;;;15.30;4.37;;;;;;;;;;5030005;28;20115;-81
2021/07/17 13:38:33;;;;;;;8.25;2.80;;;;;;;;;;5047731;28;20021;-81
2021/07/17 13:41:06;;;;;;;12.27;3.33;;;;;;;;;;5037726;28;20025;-81
2021/07/17 13:43:31;;;;;;;12.38;2.95;;;;;;;;;;5068065;28;20020;-81
2021/07/17 13:46:00;;;;;;;9.40;3.17;;;;;;;;;;5050384;28;20021;-81
2021/07/17 13:48:25;;;;;;;10.02;3.53;;;;;;;;;;5050004;28;20031;-81
2021/07/17 13:50:50;;;;;;;15.00;3.47;;;;;;;;;;5050647;28;20024;-81
2021/07/17 13:53:17;;;;;;;11.87;3.00;;;;;;;;;;5068218;28;20247;-81
2021/07/17 13:55:43;;;;;;;13.98;3.05;;;;;;;;;;5050600;28;20259;-82
2021/07/17 13:58:12;;;;;;;7.95;2.95;;;;;;;;;;5052272;28;20024;-80
2021/07/17 14:00:46;;;;;;;8.07;2.60;;;;;;;;;;5070938;28;20021;-81
2021/07/17 14:03:11;;;;;;;15.43;4.05;;;;;;;;;;5071881;28;20023;-82
2021/07/17 14:05:37;;;;;;;11.60;3.30;;;;;;;;;;5071940;28;20012;-81
2021/07/17 14:08:02;;;;;;;12.18;2.40;;;;;;;;;;5071025;28;20017;-81
2021/07/17 14:10:28;;;;;;;20.83;4.18;;;;;;;;;;5054240;28;20032;-81
2021/07/17 14:12:53;;;;;;;6.13;2.35;;;;;;;;;;5072481;28;20024;-81
2021/07/17 14:15:18;;;;;;;12.23;3.20;;;;;;;;;;5072869;28;20108;-81
2021/07/17 14:17:43;;;;;;;14.37;3.57;;;;;;;;;;5092198;28;20298;-81